createdAt,value
2018-12-22T00:00:44.518Z,10.41
2018-12-22T00:05:46.769Z,10.45
2018-12-22T00:10:48.994Z,10.36
2018-12-22T00:15:51.332Z,10.26
2018-12-22T00:20:53.629Z,10.32
2018-12-22T00:25:55.875Z,10.28
2018-12-22T00:30:58.144Z,9.92
2018-12-22T00:36:00.441Z,10.07
2018-12-22T00:41:02.853Z,9.93
2018-12-22T00:46:05.109Z,10.01
2018-12-22T00:51:07.414Z,10.09
2018-12-22T00:56:09.672Z,10.05
2018-12-22T01:01:12.042Z,9.88
2018-12-22T01:06:15.244Z,9.90
2018-12-22T01:11:17.472Z,9.97
2018-12-22T01:16:19.878Z,10.00
2018-12-22T01:21:23.017Z,10.13
2018-12-22T01:26:25.241Z,10.05
2018-12-22T01:31:28.158Z,10.01
2018-12-22T01:36:30.398Z,9.97
2018-12-22T01:41:32.653Z,9.89
2018-12-22T01:46:34.965Z,10.18
2018-12-22T01:51:37.197Z,10.20
2018-12-22T01:56:39.486Z,10.13
2018-12-22T02:01:41.725Z,10.13
2018-12-22T02:06:43.949Z,10.25
2018-12-22T02:11:47.304Z,10.13
2018-12-22T02:16:49.605Z,10.17
2018-12-22T02:21:53.093Z,10.06
2018-12-22T02:26:55.315Z,10.08
2018-12-22T02:31:58.570Z,9.82
2018-12-22T02:37:00.835Z,10.02
2018-12-22T02:42:03.117Z,10.13
2018-12-22T02:47:05.689Z,10.10
2018-12-22T02:52:08.072Z,10.07
2018-12-22T02:57:10.341Z,9.97
2018-12-22T03:02:12.576Z,10.07
2018-12-22T03:07:15.012Z,9.95
2018-12-22T03:12:17.237Z,9.90
2018-12-22T03:17:19.633Z,9.98
2018-12-22T03:22:21.959Z,10.01
2018-12-22T03:27:24.354Z,10.07
2018-12-22T03:32:26.787Z,9.96
2018-12-22T03:37:29.095Z,10.04
2018-12-22T03:42:31.364Z,9.86
2018-12-22T03:47:33.702Z,9.73
2018-12-22T03:52:35.997Z,9.84
2018-12-22T03:57:38.240Z,9.71
2018-12-22T04:02:40.488Z,9.75
2018-12-22T04:07:42.746Z,9.65
2018-12-22T04:12:45.116Z,9.57
2018-12-22T04:17:47.388Z,9.39
2018-12-22T04:22:49.656Z,9.40
2018-12-22T04:27:51.945Z,9.41
2018-12-22T04:32:54.308Z,9.41
2018-12-22T04:37:56.585Z,9.23
2018-12-22T04:42:58.831Z,9.03
2018-12-22T04:48:01.218Z,8.85
2018-12-22T04:53:03.521Z,8.93
2018-12-22T04:58:05.958Z,8.88
2018-12-22T05:03:08.178Z,8.95
2018-12-22T05:08:10.495Z,8.89
2018-12-22T05:13:13.426Z,8.92
2018-12-22T05:18:15.661Z,8.89
2018-12-22T05:23:17.901Z,8.82
2018-12-22T05:28:20.152Z,8.85
2018-12-22T05:33:22.460Z,8.79
2018-12-22T05:38:24.813Z,8.92
2018-12-22T05:43:27.244Z,8.78
2018-12-22T05:48:29.486Z,8.71
2018-12-22T05:53:31.842Z,8.71
2018-12-22T05:58:34.085Z,8.63
2018-12-22T06:03:36.318Z,8.63
2018-12-22T06:08:38.685Z,8.62
2018-12-22T06:13:41.285Z,8.72
2018-12-22T06:18:43.529Z,8.66
2018-12-22T06:23:45.813Z,8.59
2018-12-22T06:28:48.087Z,8.65
2018-12-22T06:33:50.471Z,8.68
2018-12-22T06:38:52.719Z,8.77
2018-12-22T06:43:55.049Z,8.80
2018-12-22T06:48:57.385Z,9.05
2018-12-22T06:53:59.627Z,9.24
2018-12-22T06:59:03.358Z,9.24
2018-12-22T07:04:09.431Z,9.38
2018-12-22T07:09:11.857Z,9.40
2018-12-22T07:14:14.085Z,9.40
2018-12-22T07:19:16.372Z,9.37
2018-12-22T07:24:18.687Z,9.20
2018-12-22T07:29:20.951Z,9.31
2018-12-22T07:34:23.246Z,9.19
2018-12-22T07:39:25.484Z,9.23
2018-12-22T07:44:27.837Z,9.28
2018-12-22T07:49:30.064Z,9.20
2018-12-22T07:54:33.307Z,9.26
2018-12-22T07:59:35.613Z,9.35
2018-12-22T08:04:37.852Z,9.44
2018-12-22T08:09:40.061Z,9.34
2018-12-22T08:14:42.393Z,9.48
2018-12-22T08:19:44.782Z,9.46
2018-12-22T08:24:47.021Z,9.53
2018-12-22T08:29:49.317Z,9.74
2018-12-22T08:34:59.191Z,9.76
2018-12-22T08:40:01.637Z,9.61
2018-12-22T08:45:05.010Z,9.77
2018-12-22T08:50:09.688Z,9.91
2018-12-22T08:55:12.246Z,10.02
2018-12-22T09:00:14.998Z,9.91
2018-12-22T09:05:17.313Z,10.09
2018-12-22T09:10:19.657Z,10.01
2018-12-22T09:15:23.902Z,9.91
2018-12-22T09:20:26.171Z,9.90
2018-12-22T09:25:29.437Z,9.85
2018-12-22T09:30:31.806Z,9.72
2018-12-22T09:35:34.047Z,9.84
2018-12-22T09:40:36.320Z,10.00
2018-12-22T09:45:38.565Z,9.93
2018-12-22T09:50:40.789Z,9.83
2018-12-22T09:55:43.195Z,9.80
2018-12-22T10:00:45.587Z,9.68
2018-12-22T10:05:50.699Z,9.65
2018-12-22T10:10:52.941Z,9.65
2018-12-22T10:15:55.244Z,9.65
2018-12-22T10:20:57.511Z,9.66
2018-12-22T10:25:59.883Z,9.78
2018-12-22T10:31:03.641Z,9.85
2018-12-22T10:36:06.359Z,9.86
2018-12-22T10:41:08.695Z,9.74
2018-12-22T10:46:12.128Z,9.71
2018-12-22T10:51:14.358Z,9.66
2018-12-22T10:56:16.614Z,9.73
2018-12-22T11:01:26.199Z,9.64
2018-12-22T11:06:23.206Z,9.28
2018-12-22T11:11:25.695Z,9.02
2018-12-22T11:16:27.937Z,8.63
2018-12-22T11:21:30.185Z,7.90
2018-12-22T11:26:33.020Z,7.60
2018-12-22T11:31:35.498Z,7.52
2018-12-22T11:36:37.781Z,7.30
2018-12-22T11:41:40.091Z,7.07
2018-12-22T11:46:42.582Z,6.86
2018-12-22T11:51:45.169Z,6.71
2018-12-22T11:56:47.397Z,6.59
2018-12-22T12:01:49.847Z,6.58
2018-12-22T12:06:52.263Z,6.52
2018-12-22T12:11:54.512Z,6.53
2018-12-22T12:18:08.818Z,6.58
2018-12-22T12:23:11.057Z,6.66
2018-12-22T12:28:13.469Z,6.72
2018-12-22T12:33:15.788Z,6.72
2018-12-22T12:38:18.049Z,6.72
2018-12-22T12:43:20.534Z,6.79
2018-12-22T12:48:24.181Z,6.83
2018-12-22T12:53:26.433Z,6.86
2018-12-22T12:58:28.681Z,6.84
2018-12-22T13:03:30.973Z,6.88
2018-12-22T13:08:33.208Z,6.82
2018-12-22T13:13:42.158Z,6.69
2018-12-22T13:18:44.410Z,6.64
2018-12-22T13:23:46.703Z,6.59
2018-12-22T13:28:48.984Z,6.58
2018-12-22T13:33:51.317Z,6.53
2018-12-22T13:39:04.707Z,6.38
2018-12-22T13:44:06.946Z,6.30
2018-12-22T13:49:09.337Z,6.27
2018-12-22T13:54:12.696Z,6.22
2018-12-22T13:59:14.921Z,6.18
2018-12-22T14:04:17.193Z,6.10
2018-12-22T14:09:19.521Z,6.08
2018-12-22T14:14:25.607Z,6.01
2018-12-22T14:19:27.956Z,5.95
2018-12-22T14:24:39.771Z,5.94
2018-12-22T14:29:42.391Z,5.90
2018-12-22T14:34:49.139Z,5.89
2018-12-22T14:39:51.489Z,5.89
2018-12-22T14:44:53.725Z,5.87
2018-12-22T14:49:55.972Z,5.87
2018-12-22T15:00:27.602Z,5.94
2018-12-22T15:05:29.942Z,5.95
2018-12-22T15:10:33.860Z,5.97
2018-12-22T15:15:36.413Z,5.99
2018-12-22T15:20:38.737Z,6.08
2018-12-22T15:25:40.967Z,6.14
2018-12-22T15:30:43.258Z,6.16
2018-12-22T15:35:45.629Z,6.27
2018-12-22T15:40:47.924Z,6.34
2018-12-22T15:45:50.225Z,6.38
2018-12-22T15:50:52.486Z,6.53
2018-12-22T15:55:54.972Z,6.47
2018-12-22T16:00:57.431Z,6.64
2018-12-22T16:05:59.921Z,6.72
2018-12-22T16:11:02.421Z,6.72
2018-12-22T16:16:05.102Z,6.87
2018-12-22T16:21:07.537Z,6.95
2018-12-22T16:26:09.952Z,6.86
2018-12-22T16:31:12.427Z,6.86
2018-12-22T16:36:15.267Z,6.87
2018-12-22T16:41:17.553Z,6.88
2018-12-22T16:46:20.009Z,6.84
2018-12-22T16:51:22.366Z,6.66
2018-12-22T16:56:24.645Z,6.59
2018-12-22T17:01:40.028Z,6.58
2018-12-22T17:06:42.324Z,6.58
2018-12-22T17:11:44.597Z,6.61
2018-12-22T17:16:47.304Z,6.53
2018-12-22T17:21:55.377Z,6.52
2018-12-22T17:26:58.665Z,6.54
2018-12-22T17:32:01.146Z,6.60
2018-12-22T17:37:03.656Z,6.64
2018-12-22T17:42:06.466Z,6.73
2018-12-22T17:47:08.746Z,6.72
2018-12-22T17:52:11.021Z,6.63
2018-12-22T17:57:13.775Z,6.65
2018-12-22T18:02:16.144Z,6.71
2018-12-22T18:07:18.502Z,6.91
2018-12-22T18:12:20.778Z,7.07
2018-12-22T18:17:23.064Z,6.95
2018-12-22T18:22:25.376Z,6.95
2018-12-22T18:27:27.718Z,7.01
2018-12-22T18:32:29.973Z,6.98
2018-12-22T18:37:32.322Z,7.04
2018-12-22T18:42:34.594Z,7.00
2018-12-22T18:47:37.069Z,7.03
2018-12-22T18:52:39.299Z,6.99
2018-12-22T18:57:41.575Z,7.05
2018-12-22T19:02:43.945Z,7.09
2018-12-22T19:07:46.208Z,7.00
2018-12-22T19:12:48.811Z,6.98
2018-12-22T19:17:55.128Z,7.06
2018-12-22T19:22:58.021Z,7.05
2018-12-22T19:28:00.350Z,7.10
2018-12-22T19:33:02.582Z,7.13
2018-12-22T19:38:05.029Z,7.16
2018-12-22T19:43:07.430Z,7.27
2018-12-22T19:48:09.641Z,7.34
2018-12-22T19:53:12.056Z,7.37
2018-12-22T19:58:14.271Z,7.36
2018-12-22T20:03:16.498Z,7.44
2018-12-22T20:08:18.794Z,7.44
2018-12-22T20:13:21.314Z,7.49
2018-12-22T20:18:23.682Z,7.56
2018-12-22T20:23:25.948Z,7.67
2018-12-22T20:28:28.243Z,7.68
2018-12-22T20:33:30.586Z,7.53
2018-12-22T20:38:32.849Z,7.67
2018-12-22T20:43:35.207Z,7.57
2018-12-22T20:48:37.414Z,7.60
2018-12-22T20:53:39.621Z,7.48
2018-12-22T20:58:41.830Z,7.42
2018-12-22T21:03:44.291Z,7.49
2018-12-22T21:08:46.724Z,7.43
2018-12-22T21:13:48.939Z,7.33
2018-12-22T21:18:51.205Z,7.15
2018-12-22T21:23:53.432Z,6.98
2018-12-22T21:28:55.828Z,6.84
2018-12-22T21:33:58.060Z,6.80
2018-12-22T21:39:00.575Z,6.72
2018-12-22T21:44:02.917Z,6.74
2018-12-22T21:49:05.454Z,6.57
2018-12-22T21:54:07.835Z,6.56
2018-12-22T21:59:10.877Z,6.49
2018-12-22T22:04:13.550Z,6.45
2018-12-22T22:09:19.257Z,6.47
2018-12-22T22:14:23.051Z,6.44
2018-12-22T22:19:26.402Z,6.58
2018-12-22T22:24:28.722Z,6.52
2018-12-22T22:29:32.170Z,6.59
2018-12-22T22:34:34.534Z,6.56
2018-12-22T22:39:36.967Z,6.68
2018-12-22T22:44:39.671Z,6.58
2018-12-22T22:49:41.969Z,6.68
2018-12-22T22:54:44.260Z,6.66
2018-12-22T22:59:46.579Z,6.56
2018-12-22T23:04:54.340Z,6.67
2018-12-22T23:09:53.173Z,6.59
2018-12-22T23:14:55.463Z,6.64
2018-12-22T23:19:57.756Z,6.50
2018-12-22T23:24:59.968Z,6.50
2018-12-22T23:30:02.686Z,6.55
2018-12-22T23:35:06.261Z,6.59
2018-12-22T23:40:08.716Z,6.57
2018-12-22T23:45:10.962Z,6.64
2018-12-22T23:50:13.194Z,6.59
2018-12-22T23:55:15.701Z,6.65
